createdAt,value
2018-09-01T00:00:34.551Z,12.70
2018-09-01T00:03:02.596Z,12.70
2018-09-01T00:05:30.871Z,12.70
2018-09-01T00:07:58.915Z,12.70
2018-09-01T00:10:26.910Z,12.70
2018-09-01T00:12:54.972Z,12.70
2018-09-01T00:15:23.060Z,12.70
2018-09-01T00:17:51.107Z,12.70
2018-09-01T00:20:19.201Z,12.70
2018-09-01T00:22:47.219Z,12.70
2018-09-01T00:25:15.248Z,12.70
2018-09-01T00:27:43.311Z,12.70
2018-09-01T00:30:11.518Z,12.70
2018-09-01T00:32:39.674Z,12.70
2018-09-01T00:35:07.761Z,12.70
2018-09-01T00:37:41.230Z,12.70
2018-09-01T00:40:09.331Z,12.70
2018-09-01T00:42:37.486Z,12.70
2018-09-01T00:45:05.891Z,12.70
2018-09-01T00:47:34.058Z,12.70
2018-09-01T00:50:02.167Z,12.70
2018-09-01T00:52:30.213Z,12.70
2018-09-01T00:54:58.266Z,12.70
2018-09-01T00:57:26.512Z,12.70
2018-09-01T00:59:54.683Z,12.70
2018-09-01T01:02:22.697Z,12.70
2018-09-01T01:04:50.841Z,12.70
2018-09-01T01:07:18.939Z,12.60
2018-09-01T01:09:47.131Z,12.70
2018-09-01T01:12:15.191Z,12.70
2018-09-01T01:14:43.356Z,12.70
2018-09-01T01:17:11.442Z,12.60
2018-09-01T01:19:40.366Z,12.70
2018-09-01T01:22:08.386Z,12.60
2018-09-01T01:24:36.474Z,12.60
2018-09-01T01:27:04.637Z,12.60
2018-09-01T01:29:32.727Z,12.60
2018-09-01T01:32:00.859Z,12.60
2018-09-01T01:34:28.884Z,12.60
2018-09-01T01:36:57.022Z,12.60
2018-09-01T01:39:25.211Z,12.60
2018-09-01T01:41:53.278Z,12.50
2018-09-01T01:44:21.378Z,12.50
2018-09-01T01:46:49.503Z,12.50
2018-09-01T01:49:17.539Z,12.50
2018-09-01T01:51:45.570Z,12.50
2018-09-01T01:54:13.671Z,12.50
2018-09-01T01:56:42.066Z,12.40
2018-09-01T01:59:10.558Z,12.40
2018-09-01T02:01:38.574Z,12.40
2018-09-01T02:04:06.786Z,12.40
2018-09-01T02:06:35.010Z,12.40
2018-09-01T02:09:03.538Z,12.40
2018-09-01T02:11:31.707Z,12.40
2018-09-01T02:13:59.779Z,12.40
2018-09-01T02:16:27.941Z,12.40
2018-09-01T02:18:56.004Z,12.40
2018-09-01T02:21:24.209Z,12.40
2018-09-01T02:23:52.403Z,12.30
2018-09-01T02:26:20.460Z,12.30
2018-09-01T02:28:48.506Z,12.30
2018-09-01T02:31:16.580Z,12.30
2018-09-01T02:33:44.682Z,12.30
2018-09-01T02:36:12.715Z,12.30
2018-09-01T02:38:40.825Z,12.20
2018-09-01T02:41:09.022Z,12.20
2018-09-01T02:43:37.043Z,12.20
2018-09-01T02:46:05.209Z,12.20
2018-09-01T02:48:33.535Z,12.20
2018-09-01T02:51:01.731Z,12.20
2018-09-01T02:53:29.742Z,12.20
2018-09-01T02:55:57.867Z,12.10
2018-09-01T02:58:25.910Z,12.10
2018-09-01T03:00:59.639Z,12.10
2018-09-01T03:03:27.824Z,12.10
2018-09-01T03:05:55.871Z,12.10
2018-09-01T03:08:24.154Z,12.10
2018-09-01T03:10:52.147Z,12.00
2018-09-01T03:13:20.166Z,12.00
2018-09-01T03:15:48.301Z,12.00
2018-09-01T03:18:16.441Z,12.00
2018-09-01T03:20:44.499Z,12.00
2018-09-01T03:23:12.587Z,12.00
2018-09-01T03:25:40.889Z,12.00
2018-09-01T03:28:08.941Z,12.00
2018-09-01T03:30:37.036Z,12.00
2018-09-01T03:33:05.062Z,12.00
2018-09-01T03:35:33.165Z,12.00
2018-09-01T03:38:01.419Z,11.90
2018-09-01T03:40:29.535Z,11.90
2018-09-01T03:42:57.595Z,11.90
2018-09-01T03:45:25.747Z,11.90
2018-09-01T03:47:54.084Z,11.90
2018-09-01T03:50:22.086Z,11.90
2018-09-01T03:52:50.365Z,11.90
2018-09-01T03:55:18.504Z,11.90
2018-09-01T03:57:46.603Z,11.80
2018-09-01T04:00:18.100Z,11.80
2018-09-01T04:02:49.181Z,11.80
2018-09-01T04:05:17.207Z,11.80
2018-09-01T04:07:49.160Z,11.80
2018-09-01T04:10:19.118Z,11.80
2018-09-01T04:12:49.663Z,11.80
2018-09-01T04:15:17.627Z,11.80
2018-09-01T04:17:45.659Z,11.80
2018-09-01T04:20:13.723Z,11.80
2018-09-01T04:22:41.817Z,11.80
2018-09-01T04:25:09.910Z,11.80
2018-09-01T04:27:37.977Z,11.80
2018-09-01T04:30:06.655Z,11.80
2018-09-01T04:32:34.815Z,11.80
2018-09-01T04:35:02.915Z,11.80
2018-09-01T04:37:30.934Z,11.80
2018-09-01T04:39:58.987Z,11.70
2018-09-01T04:42:26.978Z,11.70
2018-09-01T04:44:55.573Z,11.70
2018-09-01T04:47:23.663Z,11.70
2018-09-01T04:49:51.863Z,11.80
2018-09-01T04:52:19.911Z,11.70
2018-09-01T04:54:48.011Z,11.80
2018-09-01T04:57:16.062Z,11.80
2018-09-01T04:59:44.130Z,11.80
2018-09-01T05:02:12.301Z,11.70
2018-09-01T05:04:40.504Z,11.70
2018-09-01T05:07:08.559Z,11.70
2018-09-01T05:09:36.645Z,11.70
2018-09-01T05:12:04.702Z,11.70
2018-09-01T05:14:32.770Z,11.70
2018-09-01T05:17:00.911Z,11.70
2018-09-01T05:19:28.910Z,11.70
2018-09-01T05:21:56.970Z,11.80
2018-09-01T05:24:25.260Z,11.70
2018-09-01T05:26:53.374Z,11.70
2018-09-01T05:29:21.413Z,11.70
2018-09-01T05:31:49.494Z,11.70
2018-09-01T05:34:17.650Z,11.80
2018-09-01T05:36:45.872Z,11.70
2018-09-01T05:39:13.898Z,11.70
2018-09-01T05:41:42.143Z,11.80
2018-09-01T05:44:10.265Z,11.80
2018-09-01T05:46:38.442Z,11.80
2018-09-01T05:49:06.503Z,11.90
2018-09-01T05:51:34.686Z,11.90
2018-09-01T05:54:02.855Z,11.90
2018-09-01T05:56:31.039Z,11.80
2018-09-01T05:58:59.120Z,11.80
2018-09-01T06:01:27.283Z,11.80
2018-09-01T06:03:55.408Z,11.70
2018-09-01T06:06:23.693Z,11.70
2018-09-01T06:08:51.691Z,11.70
2018-09-01T06:11:19.917Z,11.70
2018-09-01T06:13:47.963Z,11.70
2018-09-01T06:16:16.138Z,11.70
2018-09-01T06:18:44.207Z,11.70
2018-09-01T06:21:12.354Z,11.70
2018-09-01T06:23:40.511Z,11.80
2018-09-01T06:26:08.503Z,11.70
2018-09-01T06:28:39.355Z,11.80
2018-09-01T06:31:07.528Z,11.80
2018-09-01T06:33:35.762Z,11.80
2018-09-01T06:36:03.882Z,11.80
2018-09-01T06:38:31.989Z,11.90
2018-09-01T06:40:59.970Z,11.90
2018-09-01T06:43:30.860Z,11.90
2018-09-01T06:46:02.079Z,11.90
2018-09-01T06:48:30.105Z,12.00
2018-09-01T06:50:58.390Z,12.10
2018-09-01T06:53:37.441Z,12.10
2018-09-01T06:56:05.879Z,12.10
2018-09-01T06:58:33.967Z,12.00
2018-09-01T07:01:02.153Z,11.90
2018-09-01T07:03:30.316Z,12.00
2018-09-01T07:05:58.826Z,11.90
2018-09-01T07:08:26.879Z,12.00
2018-09-01T07:10:58.237Z,12.10
2018-09-01T07:13:29.806Z,12.30
2018-09-01T07:16:02.693Z,12.30
2018-09-01T07:18:34.535Z,12.30
2018-09-01T07:21:08.233Z,12.30
2018-09-01T07:23:41.449Z,12.20
2018-09-01T07:26:09.599Z,12.20
2018-09-01T07:28:37.858Z,12.10
2018-09-01T07:31:08.303Z,12.10
2018-09-01T07:33:36.469Z,12.10
2018-09-01T07:36:04.566Z,12.20
2018-09-01T07:38:32.830Z,12.20
2018-09-01T07:41:00.918Z,12.20
2018-09-01T07:43:29.010Z,12.20
2018-09-01T07:45:57.174Z,12.10
2018-09-01T07:48:25.238Z,12.20
2018-09-01T07:50:53.310Z,12.20
2018-09-01T07:53:21.390Z,12.10
2018-09-01T07:55:49.450Z,12.10
2018-09-01T07:58:17.515Z,12.00
2018-09-01T08:00:48.666Z,12.00
2018-09-01T08:03:16.728Z,11.90
2018-09-01T08:05:44.792Z,11.90
2018-09-01T08:08:21.871Z,12.00
2018-09-01T08:10:50.217Z,12.10
2018-09-01T08:13:18.242Z,12.10
2018-09-01T08:15:46.410Z,12.10
2018-09-01T08:18:14.494Z,12.10
2018-09-01T08:20:42.550Z,12.10
2018-09-01T08:23:10.731Z,12.10
2018-09-01T08:25:38.886Z,12.10
2018-09-01T08:28:07.171Z,12.10
2018-09-01T08:30:35.543Z,12.10
2018-09-01T08:33:03.989Z,12.10
2018-09-01T08:35:32.131Z,12.10
2018-09-01T08:38:00.186Z,12.20
2018-09-01T08:40:28.281Z,12.20
2018-09-01T08:42:56.403Z,12.20
2018-09-01T08:45:24.620Z,12.10
2018-09-01T08:47:52.907Z,12.10
2018-09-01T08:50:21.004Z,12.20
2018-09-01T08:52:49.033Z,12.20
2018-09-01T08:55:17.138Z,12.20
2018-09-01T08:57:45.156Z,12.20
2018-09-01T09:00:13.517Z,12.20
2018-09-01T09:02:41.546Z,12.20
2018-09-01T09:05:09.630Z,12.10
2018-09-01T09:07:37.684Z,12.10
2018-09-01T09:10:06.026Z,12.00
2018-09-01T09:12:34.231Z,11.90
2018-09-01T09:15:02.330Z,11.90
2018-09-01T09:17:30.567Z,11.90
2018-09-01T09:19:58.760Z,12.00
2018-09-01T09:22:26.822Z,12.00
2018-09-01T09:24:54.930Z,12.00
2018-09-01T09:27:23.091Z,12.00
2018-09-01T09:29:51.195Z,12.00
2018-09-01T09:32:19.241Z,12.00
2018-09-01T09:34:47.330Z,12.00
2018-09-01T09:37:15.626Z,12.10
2018-09-01T09:39:43.670Z,12.20
2018-09-01T09:42:11.714Z,12.30
2018-09-01T09:44:39.918Z,12.40
2018-09-01T09:47:08.098Z,12.30
2018-09-01T09:49:36.227Z,12.20
2018-09-01T09:52:04.470Z,12.20
2018-09-01T09:54:32.808Z,12.20
2018-09-01T09:57:00.994Z,12.20
2018-09-01T09:59:29.062Z,12.30
2018-09-01T10:02:01.656Z,12.30
2018-09-01T10:04:30.007Z,12.30
2018-09-01T10:06:58.026Z,12.20
2018-09-01T10:09:26.065Z,12.20
2018-09-01T10:11:54.358Z,12.20
2018-09-01T10:14:22.611Z,12.30
2018-09-01T10:16:50.703Z,12.30
2018-09-01T10:19:18.871Z,12.40
2018-09-01T10:21:46.862Z,12.50
2018-09-01T10:24:14.911Z,12.40
2018-09-01T10:26:43.002Z,12.40
2018-09-01T10:29:11.354Z,12.30
2018-09-01T10:31:39.529Z,12.20
2018-09-01T10:34:07.655Z,12.30
2018-09-01T10:36:35.808Z,12.30
2018-09-01T10:39:05.720Z,12.30
2018-09-01T10:41:33.906Z,12.30
2018-09-01T10:44:02.090Z,12.40
2018-09-01T10:46:30.222Z,12.60
2018-09-01T10:48:58.502Z,12.60
2018-09-01T10:51:26.574Z,12.70
2018-09-01T10:53:54.674Z,12.70
2018-09-01T10:56:22.765Z,12.60
2018-09-01T10:58:50.841Z,12.50
2018-09-01T11:01:18.967Z,12.50
2018-09-01T11:03:47.103Z,12.60
2018-09-01T11:06:15.120Z,12.60
2018-09-01T11:08:43.227Z,12.50
2018-09-01T11:11:11.260Z,12.50
2018-09-01T11:13:39.254Z,12.50
2018-09-01T11:16:07.759Z,12.50
2018-09-01T11:18:35.779Z,12.70
2018-09-01T11:21:04.167Z,12.80
2018-09-01T11:23:32.264Z,12.90
2018-09-01T11:26:00.457Z,12.90
2018-09-01T11:28:28.613Z,12.90
2018-09-01T11:30:56.765Z,12.90
2018-09-01T11:33:24.848Z,12.90
2018-09-01T11:35:53.243Z,12.80
2018-09-01T11:38:21.515Z,12.80
2018-09-01T11:40:49.715Z,13.00
2018-09-01T11:43:17.776Z,13.20
2018-09-01T11:45:45.847Z,13.20
2018-09-01T11:48:14.016Z,13.30
2018-09-01T11:50:42.176Z,13.20
2018-09-01T11:53:10.405Z,13.10
2018-09-01T11:55:38.418Z,12.90
2018-09-01T11:58:06.451Z,13.00
2018-09-01T12:00:34.532Z,13.10
2018-09-01T12:03:02.796Z,13.30
2018-09-01T12:05:30.918Z,13.50
2018-09-01T12:07:59.027Z,13.50
2018-09-01T12:10:27.277Z,13.50
2018-09-01T12:12:55.280Z,13.30
2018-09-01T12:15:23.527Z,13.10
2018-09-01T12:17:51.619Z,12.90
2018-09-01T12:20:19.653Z,12.90
2018-09-01T12:22:47.899Z,12.80
2018-09-01T12:25:16.006Z,12.70
2018-09-01T12:27:44.114Z,12.60
2018-09-01T12:30:12.118Z,12.40
2018-09-01T12:32:40.267Z,12.40
2018-09-01T12:35:08.310Z,12.40
2018-09-01T12:37:36.407Z,12.30
2018-09-01T12:40:04.653Z,12.20
2018-09-01T12:42:32.648Z,12.30
2018-09-01T12:45:00.803Z,12.30
2018-09-01T12:47:28.827Z,12.30
2018-09-01T12:49:56.940Z,12.20
2018-09-01T12:52:25.046Z,12.20
2018-09-01T12:54:53.123Z,12.20
2018-09-01T12:57:21.171Z,12.20
2018-09-01T12:59:49.558Z,12.20
2018-09-01T13:02:20.935Z,12.20
2018-09-01T13:04:49.639Z,12.30
2018-09-01T13:07:17.871Z,12.20
2018-09-01T13:09:46.171Z,12.20
2018-09-01T13:12:14.153Z,12.20
2018-09-01T13:14:42.823Z,12.30
2018-09-01T13:17:11.315Z,12.30
2018-09-01T13:19:39.811Z,12.30
2018-09-01T13:22:08.155Z,12.30
2018-09-01T13:24:36.243Z,12.30
2018-09-01T13:27:04.295Z,12.30
2018-09-01T13:29:32.603Z,12.30
2018-09-01T13:32:01.063Z,12.30
2018-09-01T13:34:29.280Z,12.20
2018-09-01T13:36:57.441Z,12.20
2018-09-01T13:39:25.581Z,12.30
2018-09-01T13:41:53.944Z,12.20
2018-09-01T13:44:21.927Z,12.20
2018-09-01T13:46:50.159Z,12.20
2018-09-01T13:49:18.383Z,12.30
2018-09-01T13:51:46.476Z,12.30
2018-09-01T13:54:14.530Z,12.40
2018-09-01T13:56:42.631Z,12.40
2018-09-01T13:59:10.960Z,12.40
2018-09-01T14:01:39.075Z,12.30
2018-09-01T14:04:07.130Z,12.20
2018-09-01T14:06:35.330Z,12.20
2018-09-01T14:09:04.314Z,12.10
2018-09-01T14:11:32.394Z,12.10
2018-09-01T14:14:00.571Z,12.10
2018-09-01T14:16:28.667Z,12.10
2018-09-01T14:18:56.824Z,12.10
2018-09-01T14:21:25.015Z,12.10
2018-09-01T14:23:53.074Z,12.10
2018-09-01T14:26:21.131Z,12.10
2018-09-01T14:28:49.221Z,12.10
2018-09-01T14:31:17.199Z,12.10
2018-09-01T14:33:45.254Z,12.10
2018-09-01T14:36:13.414Z,12.10
2018-09-01T14:38:41.611Z,12.10
2018-09-01T14:41:09.667Z,12.10
2018-09-01T14:43:37.857Z,12.10
2018-09-01T14:46:05.936Z,12.10
2018-09-01T14:48:34.014Z,12.20
2018-09-01T14:51:02.160Z,12.20
2018-09-01T14:53:30.254Z,12.20
2018-09-01T14:55:58.395Z,12.30
2018-09-01T14:58:26.625Z,12.30
2018-09-01T15:00:54.671Z,12.30
2018-09-01T15:03:22.807Z,12.40
2018-09-01T15:05:50.939Z,12.30
2018-09-01T15:08:18.855Z,12.40
2018-09-01T15:10:46.983Z,12.40
2018-09-01T15:13:15.226Z,12.40
2018-09-01T15:15:43.328Z,12.50
2018-09-01T15:18:11.471Z,12.50
2018-09-01T15:20:39.789Z,12.50
2018-09-01T15:23:07.835Z,12.60
2018-09-01T15:25:35.926Z,12.60
2018-09-01T15:28:03.970Z,12.60
2018-09-01T15:30:32.100Z,12.50
2018-09-01T15:33:00.151Z,12.40
2018-09-01T15:35:28.300Z,12.30
2018-09-01T15:37:56.408Z,12.20
2018-09-01T15:40:24.546Z,12.10
2018-09-01T15:42:52.637Z,12.10
2018-09-01T15:45:20.671Z,12.00
2018-09-01T15:47:48.763Z,11.90
2018-09-01T15:50:16.941Z,11.90
2018-09-01T15:52:45.051Z,11.90
2018-09-01T15:55:14.011Z,11.90
2018-09-01T15:57:42.199Z,11.90
2018-09-01T16:00:10.270Z,11.90
2018-09-01T16:02:38.447Z,11.90
2018-09-01T16:05:06.702Z,11.90
2018-09-01T16:07:34.931Z,11.90
2018-09-01T16:10:03.159Z,11.90
2018-09-01T16:12:31.330Z,11.80
2018-09-01T16:14:59.348Z,11.80
2018-09-01T16:17:27.398Z,11.80
2018-09-01T16:19:55.500Z,11.80
2018-09-01T16:22:23.531Z,11.70
2018-09-01T16:24:51.616Z,11.70
2018-09-01T16:27:19.658Z,11.70
2018-09-01T16:29:47.766Z,11.70
2018-09-01T16:32:15.927Z,11.70
2018-09-01T16:34:44.190Z,11.70
2018-09-01T16:37:12.187Z,11.70
2018-09-01T16:39:40.364Z,11.70
2018-09-01T16:42:08.406Z,11.70
2018-09-01T16:44:36.510Z,11.70
2018-09-01T16:47:05.200Z,11.60
2018-09-01T16:49:33.247Z,11.60
2018-09-01T16:52:01.609Z,11.60
2018-09-01T16:54:29.607Z,11.60
2018-09-01T16:56:57.698Z,11.60
2018-09-01T16:59:25.767Z,11.60
2018-09-01T17:01:53.847Z,11.60
2018-09-01T17:04:21.793Z,11.60
2018-09-01T17:06:49.999Z,11.50
2018-09-01T17:09:18.279Z,11.50
2018-09-01T17:11:46.439Z,11.50
2018-09-01T17:14:14.595Z,11.50
2018-09-01T17:16:42.586Z,11.40
2018-09-01T17:19:10.735Z,11.40
2018-09-01T17:21:38.837Z,11.40
2018-09-01T17:24:06.934Z,11.50
2018-09-01T17:26:35.159Z,11.50
2018-09-01T17:29:03.267Z,11.50
2018-09-01T17:31:31.306Z,11.50
2018-09-01T17:33:59.315Z,11.50
2018-09-01T17:36:27.357Z,11.60
2018-09-01T17:38:55.563Z,11.50
2018-09-01T17:41:23.574Z,11.50
2018-09-01T17:43:51.774Z,11.50
2018-09-01T17:46:20.070Z,11.50
2018-09-01T17:48:48.201Z,11.50
2018-09-01T17:51:16.214Z,11.50
2018-09-01T17:53:44.303Z,11.60
2018-09-01T17:56:12.361Z,11.60
2018-09-01T17:58:40.455Z,11.60
2018-09-01T18:01:08.558Z,11.60
2018-09-01T18:03:36.594Z,11.60
2018-09-01T18:06:04.677Z,11.50
2018-09-01T18:08:32.830Z,11.50
2018-09-01T18:11:00.933Z,11.50
2018-09-01T18:13:29.101Z,11.40
2018-09-01T18:15:57.367Z,11.40
2018-09-01T18:18:25.414Z,11.40
2018-09-01T18:20:53.610Z,11.40
2018-09-01T18:23:21.695Z,11.40
2018-09-01T18:25:49.771Z,11.40
2018-09-01T18:28:17.842Z,11.30
2018-09-01T18:30:45.919Z,11.30
2018-09-01T18:33:14.070Z,11.30
2018-09-01T18:35:42.185Z,11.30
2018-09-01T18:38:10.414Z,11.30
2018-09-01T18:40:38.507Z,11.30
2018-09-01T18:43:06.559Z,11.30
2018-09-01T18:45:34.658Z,11.30
2018-09-01T18:48:02.728Z,11.30
2018-09-01T18:50:30.903Z,11.30
2018-09-01T18:52:59.375Z,11.30
2018-09-01T18:55:27.539Z,11.30
2018-09-01T18:57:55.743Z,11.30
2018-09-01T19:00:23.935Z,11.30
2018-09-01T19:02:52.211Z,11.30
2018-09-01T19:05:20.351Z,11.30
2018-09-01T19:07:48.582Z,11.30
2018-09-01T19:10:16.710Z,11.30
2018-09-01T19:12:44.810Z,11.30
2018-09-01T19:15:12.859Z,11.30
2018-09-01T19:17:41.052Z,11.30
2018-09-01T19:20:09.128Z,11.30
2018-09-01T19:22:37.802Z,11.30
2018-09-01T19:25:06.279Z,11.30
2018-09-01T19:27:34.418Z,11.30
2018-09-01T19:30:02.427Z,11.30
2018-09-01T19:32:30.487Z,11.30
2018-09-01T19:34:58.686Z,11.30
2018-09-01T19:37:26.642Z,11.30
2018-09-01T19:39:54.825Z,11.30
2018-09-01T19:42:22.973Z,11.30
2018-09-01T19:44:51.211Z,11.30
2018-09-01T19:47:19.123Z,11.30
2018-09-01T19:49:47.339Z,11.30
2018-09-01T19:52:15.675Z,11.30
2018-09-01T19:54:43.872Z,11.30
2018-09-01T19:57:12.027Z,11.30
2018-09-01T19:59:40.119Z,11.30
2018-09-01T20:02:08.375Z,11.30
2018-09-01T20:04:36.567Z,11.30
2018-09-01T20:07:04.547Z,11.30
2018-09-01T20:09:32.599Z,11.30
2018-09-01T20:12:00.694Z,11.30
2018-09-01T20:14:28.834Z,11.30
2018-09-01T20:16:56.958Z,11.30
2018-09-01T20:19:25.191Z,11.30
2018-09-01T20:21:53.303Z,11.30
2018-09-01T20:24:21.343Z,11.30
2018-09-01T20:26:49.567Z,11.30
2018-09-01T20:29:17.713Z,11.30
2018-09-01T20:31:45.995Z,11.30
2018-09-01T20:34:14.085Z,11.30
2018-09-01T20:36:42.166Z,11.30
2018-09-01T20:39:10.292Z,11.30
2018-09-01T20:41:38.387Z,11.20
2018-09-01T20:44:06.441Z,11.20
2018-09-01T20:46:34.551Z,11.20
2018-09-01T20:49:02.595Z,11.20
2018-09-01T20:51:30.866Z,11.20
2018-09-01T20:53:58.954Z,11.20
2018-09-01T20:56:27.183Z,11.20
2018-09-01T20:58:55.522Z,11.20
2018-09-01T21:01:23.571Z,11.20
2018-09-01T21:03:51.659Z,11.20
2018-09-01T21:06:19.938Z,11.20
2018-09-01T21:08:48.120Z,11.20
2018-09-01T21:11:16.168Z,11.10
2018-09-01T21:13:44.381Z,11.20
2018-09-01T21:16:12.490Z,11.20
2018-09-01T21:18:40.522Z,11.20
2018-09-01T21:21:08.563Z,11.20
2018-09-01T21:23:36.669Z,11.20
2018-09-01T21:26:04.924Z,11.20
2018-09-01T21:28:33.103Z,11.20
2018-09-01T21:31:01.182Z,11.20
2018-09-01T21:33:29.240Z,11.20
2018-09-01T21:35:57.335Z,11.20
2018-09-01T21:38:25.681Z,11.20
2018-09-01T21:40:53.781Z,11.20
2018-09-01T21:43:21.841Z,11.20
2018-09-01T21:45:49.922Z,11.20
2018-09-01T21:48:18.191Z,11.20
2018-09-01T21:50:46.314Z,11.20
2018-09-01T21:53:14.350Z,11.20
2018-09-01T21:55:42.591Z,11.20
2018-09-01T21:58:10.686Z,11.20
2018-09-01T22:00:43.370Z,11.20
2018-09-01T22:03:11.443Z,11.20
2018-09-01T22:05:39.531Z,11.20
2018-09-01T22:08:07.619Z,11.20
2018-09-01T22:10:35.862Z,11.20
2018-09-01T22:13:04.019Z,11.30
2018-09-01T22:15:31.887Z,11.30
2018-09-01T22:18:00.098Z,11.20
2018-09-01T22:20:28.148Z,11.30
2018-09-01T22:22:56.331Z,11.20
2018-09-01T22:25:24.519Z,11.20
2018-09-01T22:27:52.616Z,11.20
2018-09-01T22:30:20.709Z,11.30
2018-09-01T22:32:48.950Z,11.30
2018-09-01T22:35:17.126Z,11.30
2018-09-01T22:37:45.262Z,11.30
2018-09-01T22:40:13.258Z,11.30
2018-09-01T22:42:41.338Z,11.30
2018-09-01T22:45:09.418Z,11.30
2018-09-01T22:47:38.208Z,11.30
2018-09-01T22:50:06.501Z,11.30
2018-09-01T22:52:36.594Z,11.30
2018-09-01T22:55:04.783Z,11.30
2018-09-01T22:57:32.953Z,11.30
2018-09-01T23:00:01.027Z,11.30
2018-09-01T23:02:29.215Z,11.30
2018-09-01T23:04:57.380Z,11.40
2018-09-01T23:07:25.430Z,11.40
2018-09-01T23:09:53.795Z,11.40
2018-09-01T23:12:21.782Z,11.40
2018-09-01T23:14:49.744Z,11.40
2018-09-01T23:17:17.750Z,11.40
2018-09-01T23:19:45.910Z,11.40
2018-09-01T23:22:14.002Z,11.40
2018-09-01T23:24:42.159Z,11.50
2018-09-01T23:27:10.246Z,11.50
2018-09-01T23:29:38.310Z,11.50
2018-09-01T23:32:07.346Z,11.50
2018-09-01T23:34:35.471Z,11.50
2018-09-01T23:37:07.026Z,11.50
2018-09-01T23:39:40.168Z,11.50
2018-09-01T23:42:10.970Z,11.50
2018-09-01T23:44:41.373Z,11.50
2018-09-01T23:47:12.527Z,11.50
2018-09-01T23:49:43.754Z,11.50
2018-09-01T23:52:14.788Z,11.50
2018-09-01T23:54:47.062Z,11.50
2018-09-01T23:57:19.087Z,11.50
2018-09-01T23:59:51.994Z,11.60
